Ko Samui, Thaïlande

10:09 ICT le 02 avril 2015 (GMT +0700)
Samui | | Change Station
CLOSE
Current Station
Aéroport
Location: Samui,
Altitude: 66 ft
Stations météo à proximité

Alt. 66 ft 9.55 °N, 100.06 °E | Updated 9 minutes ago

Mostly Cloudy
Nuageux
91 ° F
Paraît 105 ° F
N
10
Vent Variable Vent de SSE

Aujourd'hui
Haut(e) -- | Bas -- ° F
--% Risque de précip.
Hier
Haut(e) -- | Bas -- ° F
Precip. -- pouce
6:17 AM 6:30 PM
Lune gibbeuse croissante, 95% visible
Pression 29.89 pouce
Visibilité 5.6 Miles terrestres
Nuages Peu 2000 ft
Nuageux 30000 ft
indice de chaleur 105 ° F
Point de rosée 77 ° F
Humidité 63%
Précipitations 0.00 pouce
Profondeur de la couche neigeuse Non disponible.
UV 6 sur 12
Pollen Non disponible.
Qualité de l'air Non disponible.
Flu Activity Non disponible.
METAR VTSM 020300Z 16009KT 9000 FEW020 BKN300 33/25 Q1012 A2989

More Conditions Fewer Conditions

Pression 29.89 pouce
Visibilité 5.6 Miles terrestres
Nuages Peu 2000 ft
Nuageux 30000 ft
indice de chaleur 105 ° F
Point de rosée 77 ° F
Humidité 63%
Précipitations 0.00 pouce
Profondeur de la couche neigeuse Non disponible.
UV 6 sur 12
Pollen Non disponible.
Qualité de l'air Non disponible.
Flu Activity Non disponible.
METAR VTSM 020300Z 16009KT 9000 FEW020 BKN300 33/25 Q1012 A2989

More Conditions Fewer Conditions

10-Day Weather Forecast

Almanac

Astronomie

Apr. 02, 2015 Lever Coucher
Temps réel
Crépuscule civil
Crépuscule nautique
Crépuscule astronomique
Lune
Durée de lumière visible
Longueur du jour
Tomorrow will be .
, % of the Moon is Illuminated

Extrêmes aujourd'hui

Country Highs Country Lows

Community

WunderPhotos

Upload Photos

1,810,179 Photos téléchargées !

WunderBlogs® & News

Nearby

Qualité de l'air

  Qualité de l'air Indice de la qualité de l'air Polluant
Not available.

Épaisseur de neige

Station Depth Altitude

Activité sismique

Ville Distance Mag. Time & Date
Minimum magnitude displayed is 2.5.

Températures des eaux côtières

Lieu Température

Stations

Stations météo à proximité

Emplacement de la station Température Refroidissement éolien Point de rosée Humidité Vent Precip. Alt. Mise à jour Type